createdAt,value
2022-12-19T00:01:25.474Z,96.34
2022-12-19T00:06:26.690Z,96.30
2022-12-19T00:11:27.865Z,95.88
2022-12-19T00:16:29.197Z,95.94
2022-12-19T00:21:28.936Z,97.08
2022-12-19T00:26:30.091Z,96.61
2022-12-19T00:31:31.611Z,96.67
2022-12-19T00:36:30.878Z,95.62
2022-12-19T00:41:32.115Z,95.21
2022-12-19T00:46:33.342Z,96.47
2022-12-19T00:51:34.459Z,96.47
2022-12-19T00:56:37.143Z,95.62
2022-12-19T01:01:35.467Z,95.42
2022-12-19T01:06:36.746Z,93.97
2022-12-19T01:11:38.057Z,94.07
2022-12-19T01:16:39.329Z,94.18
2022-12-19T01:21:40.461Z,94.12
2022-12-19T01:26:41.740Z,94.43
2022-12-19T01:31:42.932Z,95.06
2022-12-19T01:36:44.117Z,95.37
2022-12-19T01:41:46.324Z,94.85
2022-12-19T01:46:45.475Z,94.74
2022-12-19T01:51:46.647Z,96.67
2022-12-19T01:56:51.651Z,96.67
2022-12-19T02:01:51.834Z,96.21
2022-12-19T02:06:49.325Z,96.11
2022-12-19T02:11:51.479Z,97.30
2022-12-19T02:16:50.679Z,98.04
2022-12-19T02:21:54.703Z,97.83
2022-12-19T02:26:52.211Z,96.73
2022-12-19T02:31:53.478Z,98.14
2022-12-19T02:36:54.801Z,98.14
2022-12-19T02:41:54.194Z,98.46
2022-12-19T02:46:55.323Z,97.47
2022-12-19T02:51:56.533Z,96.94
2022-12-19T02:56:57.706Z,97.36
2022-12-19T03:01:59.044Z,97.78
2022-12-19T03:07:00.327Z,96.59
2022-12-19T03:12:17.173Z,96.06
2022-12-19T03:17:02.641Z,96.17
2022-12-19T03:22:04.747Z,96.02
2022-12-19T03:27:03.861Z,95.60
2022-12-19T03:32:04.995Z,95.76
2022-12-19T03:37:06.157Z,96.48
2022-12-19T03:42:07.250Z,96.65
2022-12-19T03:47:08.403Z,97.32
2022-12-19T03:52:10.585Z,97.63
2022-12-19T03:57:09.700Z,97.63
2022-12-19T04:02:11.029Z,97.95
2022-12-19T04:07:12.265Z,97.38
2022-12-19T04:12:13.409Z,96.39
2022-12-19T04:17:14.557Z,96.50
2022-12-19T04:22:15.683Z,95.45
2022-12-19T04:27:18.841Z,96.39
2022-12-19T04:32:17.930Z,96.45
2022-12-19T04:37:19.079Z,96.04
2022-12-19T04:42:20.186Z,96.35
2022-12-19T04:47:21.352Z,96.75
2022-12-19T04:52:22.483Z,97.02
2022-12-19T04:57:23.624Z,97.13
2022-12-19T05:02:24.957Z,96.35
2022-12-19T05:07:26.187Z,96.39
2022-12-19T05:12:27.446Z,96.66
2022-12-19T05:17:28.559Z,97.44
2022-12-19T05:22:29.692Z,97.44
2022-12-19T05:27:31.819Z,97.29
2022-12-19T05:32:32.001Z,96.98
2022-12-19T05:37:31.114Z,96.41
2022-12-19T05:42:31.578Z,96.83
2022-12-19T05:47:32.756Z,97.08
2022-12-19T05:52:33.959Z,96.62
2022-12-19T05:57:35.350Z,96.51
2022-12-19T06:02:36.691Z,96.62
2022-12-19T06:07:37.998Z,96.83
2022-12-19T06:12:39.197Z,96.35
2022-12-19T06:17:40.396Z,98.49
2022-12-19T06:22:41.630Z,98.08
2022-12-19T06:27:43.784Z,96.58
2022-12-19T06:32:43.943Z,95.84
2022-12-19T06:37:43.054Z,96.10
2022-12-19T06:42:44.189Z,96.16
2022-12-19T06:47:46.396Z,96.89
2022-12-19T06:52:45.525Z,97.41
2022-12-19T06:57:46.631Z,97.83
2022-12-19T07:02:47.899Z,98.14
2022-12-19T07:07:49.077Z,97.58
2022-12-19T07:12:50.226Z,97.68
2022-12-19T07:17:51.373Z,97.32
2022-12-19T07:22:52.496Z,96.80
2022-12-19T07:27:53.643Z,96.59
2022-12-19T07:32:54.787Z,96.59
2022-12-19T07:37:55.867Z,97.01
2022-12-19T07:42:57.024Z,96.86
2022-12-19T07:47:58.171Z,95.88
2022-12-19T07:53:00.293Z,95.78
2022-12-19T07:57:59.411Z,97.03
2022-12-19T08:03:00.562Z,96.46
2022-12-19T08:08:02.670Z,95.06
2022-12-19T08:13:02.857Z,93.77
2022-12-19T08:18:02.090Z,93.91
2022-12-19T08:23:03.187Z,93.91
2022-12-19T08:28:04.316Z,94.08
2022-12-19T08:33:06.757Z,92.58
